Time;durP1;ratioP1;P1;durP2;ratioP2;P2;SDS_P1;SDS_P2;PMS_P1;PMS_P2;Temp;Humidity;BMP_temperature;BMP_pressure;BME280_temperature;BME280_humidity;BME280_pressure;Samples;Min_cycle;Max_cycle;Signal;HPM_P1;HPM_P2
2021/05/15 00:01:34;;;;;;;;;;;;;;;5.53;100.00;100120.78;5053539;28;20027;-73
2021/05/15 00:04:01;;;;;;;;;;;;;;;5.58;100.00;100124.97;5053629;28;19973;-73
2021/05/15 00:06:28;;;;;;;;;;;;;;;5.61;100.00;100122.06;5052941;28;20019;-73
2021/05/15 00:08:54;;;;;;;;;;;;;;;5.69;100.00;100128.63;5052551;28;19975;-72
2021/05/15 00:11:20;;;;;;;;;;;;;;;5.79;100.00;100119.91;5053925;28;19928;-72
2021/05/15 00:13:46;;;;;;;;;;;;;;;5.90;100.00;100119.16;5053227;28;20382;-73
2021/05/15 00:16:12;;;;;;;;;;;;;;;6.00;100.00;100115.72;5053730;28;19956;-72
2021/05/15 00:18:39;;;;;;;;;;;;;;;6.08;100.00;100112.47;5053075;28;20321;-73
2021/05/15 00:21:05;;;;;;;;;;;;;;;6.04;100.00;100119.06;5053419;28;19932;-72
2021/05/15 00:23:31;;;;;;;;;;;;;;;6.06;100.00;100125.19;5053263;28;20375;-73
2021/05/15 00:25:59;;;;;;;;;;;;;;;6.10;100.00;100121.28;5035341;28;19963;-73
2021/05/15 00:28:25;;;;;;;;;;;;;;;6.10;100.00;100105.13;5053081;28;19925;-72
2021/05/15 00:30:51;;;;;;;;;;;;;;;6.16;100.00;100111.88;5053216;28;19982;-72
2021/05/15 00:33:16;;;;;;;;;;;;;;;6.16;100.00;100114.59;5053171;28;19931;-73
2021/05/15 00:35:42;;;;;;;;;;;;;;;6.24;100.00;100114.03;5052895;28;19935;-72
2021/05/15 00:38:08;;;;;;;;;;;;;;;6.26;100.00;100118.34;5052889;28;19924;-72
2021/05/15 00:40:35;;;;;;;;;;;;;;;6.28;100.00;100112.84;5053203;28;19932;-73
2021/05/15 00:43:01;;;;;;;;;;;;;;;6.27;100.00;100108.44;5052186;28;19931;-72
2021/05/15 00:45:26;;;;;;;;;;;;;;;6.27;100.00;100113.84;5053152;28;19924;-72
2021/05/15 00:47:52;;;;;;;;;;;;;;;6.26;100.00;100117.50;5052857;28;20364;-72
2021/05/15 00:50:18;;;;;;;;;;;;;;;6.28;100.00;100111.03;5053271;28;20450;-73
2021/05/15 00:52:46;;;;;;;;;;;;;;;6.32;100.00;100114.34;5052674;28;19936;-73
2021/05/15 00:55:13;;;;;;;;;;;;;;;6.31;100.00;100112.63;5052340;28;19925;-72
2021/05/15 00:57:40;;;;;;;;;;;;;;;6.32;100.00;100122.41;5052442;28;19924;-71
2021/05/15 01:00:07;;;;;;;;;;;;;;;6.31;100.00;100118.03;5052871;28;19948;-73
2021/05/15 01:02:33;;;;;;;;;;;;;;;6.30;100.00;100121.69;5052795;28;20415;-73
2021/05/15 01:04:59;;;;;;;;;;;;;;;6.24;100.00;100114.91;5052608;28;19928;-73
2021/05/15 01:07:25;;;;;;;;;;;;;;;6.19;100.00;100120.63;5034352;28;20008;-73
2021/05/15 01:09:51;;;;;;;;;;;;;;;6.09;100.00;100119.56;5052652;28;20450;-73
2021/05/15 01:12:17;;;;;;;;;;;;;;;5.97;100.00;100118.59;5052461;28;19932;-73
2021/05/15 01:14:43;;;;;;;;;;;;;;;5.86;100.00;100113.94;5051990;28;19990;-72
2021/05/15 01:17:10;;;;;;;;;;;;;;;5.80;100.00;100118.91;5052384;28;19924;-72
2021/05/15 01:19:36;;;;;;;;;;;;;;;5.72;100.00;100122.19;5052214;28;19925;-73
2021/05/15 01:22:04;;;;;;;;;;;;;;;5.60;100.00;100125.72;5034562;28;19932;-72
2021/05/15 01:24:30;;;;;;;;;;;;;;;5.48;100.00;100125.59;5034037;28;20438;-71
2021/05/15 01:26:56;;;;;;;;;;;;;;;5.37;100.00;100122.78;5052122;28;19956;-73
2021/05/15 01:29:22;;;;;;;;;;;;;;;5.23;100.00;100120.22;5052129;28;19963;-73
2021/05/15 01:31:48;;;;;;;;;;;;;;;5.14;100.00;100121.69;5051842;28;20368;-73
2021/05/15 01:34:14;;;;;;;;;;;;;;;5.02;100.00;100121.56;5052074;28;20401;-72
2021/05/15 01:36:42;;;;;;;;;;;;;;;4.93;100.00;100121.31;5051888;28;19929;-72
2021/05/15 01:39:09;;;;;;;;;;;;;;;4.82;100.00;100120.22;5052095;28;20392;-71
2021/05/15 01:41:34;;;;;;;;;;;;;;;4.73;100.00;100120.84;5051961;28;19928;-72
2021/05/15 01:44:00;;;;;;;;;;;;;;;4.67;100.00;100129.28;5051712;28;19925;-72
2021/05/15 01:46:26;;;;;;;;;;;;;;;4.64;100.00;100124.13;5051939;28;19931;-73
2021/05/15 01:48:52;;;;;;;;;;;;;;;4.60;100.00;100123.47;5051101;28;19994;-73
2021/05/15 01:51:18;;;;;;;;;;;;;;;4.53;100.00;100122.16;5052017;28;20023;-72
2021/05/15 01:53:45;;;;;;;;;;;;;;;4.51;100.00;100122.22;5051043;28;20319;-71
2021/05/15 01:56:12;;;;;;;;;;;;;;;4.45;100.00;100116.38;5051388;28;19974;-72
2021/05/15 01:58:38;;;;;;;;;;;;;;;4.43;100.00;100112.97;5035147;28;19925;-71
2021/05/15 02:01:05;;;;;;;;;;;;;;;4.34;100.00;100111.72;5052728;28;20796;-73
2021/05/15 02:03:31;;;;;;;;;;;;;;;4.26;100.00;100111.34;5051527;28;19924;-72
2021/05/15 02:05:57;;;;;;;;;;;;;;;4.17;100.00;100105.63;5051123;28;20380;-71
2021/05/15 02:08:24;;;;;;;;;;;;;;;4.09;100.00;100105.25;5051457;28;19932;-72
2021/05/15 02:10:51;;;;;;;;;;;;;;;4.06;100.00;100100.06;5051582;28;19929;-72
2021/05/15 02:13:18;;;;;;;;;;;;;;;3.98;100.00;100105.94;5051460;28;19925;-72
2021/05/15 02:15:45;;;;;;;;;;;;;;;3.95;100.00;100105.25;5051480;28;20367;-73
2021/05/15 02:18:12;;;;;;;;;;;;;;;3.87;100.00;100105.75;5051289;28;19932;-73
2021/05/15 02:20:39;;;;;;;;;;;;;;;3.82;100.00;100105.16;5051529;28;20019;-72
2021/05/15 02:23:04;;;;;;;;;;;;;;;3.75;100.00;100102.00;5050782;28;19925;-72
2021/05/15 02:25:30;;;;;;;;;;;;;;;3.72;100.00;100102.22;5051488;28;20369;-71
2021/05/15 02:27:56;;;;;;;;;;;;;;;3.66;100.00;100100.78;5051215;28;19925;-72
2021/05/15 02:30:23;;;;;;;;;;;;;;;3.64;100.00;100099.16;5051218;28;19971;-72
2021/05/15 02:32:49;;;;;;;;;;;;;;;3.61;100.00;100096.66;5051509;28;19925;-71
2021/05/15 02:35:16;;;;;;;;;;;;;;;3.57;100.00;100097.78;5051129;28;20070;-71
2021/05/15 02:37:42;;;;;;;;;;;;;;;3.52;100.00;100093.56;5051084;28;20012;-71
2021/05/15 02:40:08;;;;;;;;;;;;;;;3.47;100.00;100092.13;5050869;28;19925;-73
2021/05/15 02:42:34;;;;;;;;;;;;;;;3.45;100.00;100088.69;5051107;28;19924;-72
2021/05/15 02:45:00;;;;;;;;;;;;;;;3.43;100.00;100091.44;5051131;28;19974;-72
2021/05/15 02:47:27;;;;;;;;;;;;;;;3.40;100.00;100088.97;5050684;28;19925;-71
2021/05/15 02:49:52;;;;;;;;;;;;;;;3.36;100.00;100084.75;5051197;28;19971;-72
2021/05/15 02:52:18;;;;;;;;;;;;;;;3.30;100.00;100087.78;5051337;28;19932;-73
2021/05/15 02:54:44;;;;;;;;;;;;;;;3.25;100.00;100077.34;5050872;28;19924;-73
2021/05/15 02:57:10;;;;;;;;;;;;;;;3.20;100.00;100075.91;5050823;28;19972;-72
2021/05/15 02:59:36;;;;;;;;;;;;;;;3.20;100.00;100070.56;5050738;28;19925;-72
2021/05/15 03:02:03;;;;;;;;;;;;;;;3.14;100.00;100079.81;5051136;28;19932;-71
2021/05/15 03:04:29;;;;;;;;;;;;;;;3.09;100.00;100074.75;5050639;28;19964;-71
2021/05/15 03:06:55;;;;;;;;;;;;;;;3.06;100.00;100076.72;5053712;28;19925;-72
2021/05/15 03:09:21;;;;;;;;;;;;;;;3.03;100.00;100066.22;5054677;28;19925;-72
2021/05/15 03:11:47;;;;;;;;;;;;;;;3.05;100.00;100066.97;5054605;28;20020;-72
2021/05/15 03:14:13;;;;;;;;;;;;;;;2.98;100.00;100070.03;5054603;28;19925;-73
2021/05/15 03:16:38;;;;;;;;;;;;;;;2.95;100.00;100072.91;5054383;28;19971;-72
2021/05/15 03:19:04;;;;;;;;;;;;;;;2.95;100.00;100070.22;5054645;28;19924;-72
2021/05/15 03:21:31;;;;;;;;;;;;;;;2.96;100.00;100073.75;5054679;28;19955;-71
2021/05/15 03:23:57;;;;;;;;;;;;;;;2.98;100.00;100072.72;5054439;28;19925;-71
2021/05/15 03:26:23;;;;;;;;;;;;;;;3.03;100.00;100067.06;5054724;28;20296;-71
2021/05/15 03:28:49;;;;;;;;;;;;;;;3.05;100.00;100077.69;5054122;28;19929;-71
2021/05/15 03:31:15;;;;;;;;;;;;;;;3.05;100.00;100073.19;5054458;28;19925;-72
2021/05/15 03:33:41;;;;;;;;;;;;;;;3.03;100.00;100069.75;5054266;28;19925;-71
2021/05/15 03:36:07;;;;;;;;;;;;;;;3.06;100.00;100066.91;5054105;28;19925;-72
2021/05/15 03:38:33;;;;;;;;;;;;;;;3.12;100.00;100077.22;5036407;28;19948;-72
2021/05/15 03:40:59;;;;;;;;;;;;;;;3.21;100.00;100072.25;5054190;28;19924;-71
2021/05/15 03:43:25;;;;;;;;;;;;;;;3.26;100.00;100068.38;5036356;28;19990;-71
2021/05/15 03:45:51;;;;;;;;;;;;;;;3.33;100.00;100064.34;5054069;28;19929;-70
2021/05/15 03:48:20;;;;;;;;;;;;;;;3.39;100.00;100064.91;5054122;28;19928;-70
2021/05/15 03:50:46;;;;;;;;;;;;;;;3.41;100.00;100071.03;5054156;28;19931;-71
2021/05/15 03:53:11;;;;;;;;;;;;;;;3.46;100.00;100067.13;5057369;28;19925;-72
2021/05/15 03:55:38;;;;;;;;;;;;;;;3.47;100.00;100062.63;5036236;28;19932;-72
2021/05/15 03:58:04;;;;;;;;;;;;;;;3.51;100.00;100062.34;5073273;28;20387;-72
2021/05/15 04:00:30;;;;;;;;;;;;;;;3.55;100.00;100064.81;5073646;28;19956;-72
2021/05/15 04:02:55;;;;;;;;;;;;;;;3.60;100.00;100058.19;5072987;28;19928;-71
2021/05/15 04:05:21;;;;;;;;;;;;;;;3.67;100.00;100062.25;5054124;28;19932;-72
2021/05/15 04:07:47;;;;;;;;;;;;;;;3.73;100.00;100050.25;5053783;28;19936;-71
2021/05/15 04:10:13;;;;;;;;;;;;;;;3.83;100.00;100058.56;5053575;28;20309;-72
2021/05/15 04:12:48;;;;;;;;;;;;;;;3.93;100.00;100053.47;5072918;28;19924;-72
2021/05/15 04:15:19;;;;;;;;;;;;;;;3.99;100.00;100055.75;5071516;28;19932;-71
2021/05/15 04:17:45;;;;;;;;;;;;;;;4.10;100.00;100057.75;5042920;28;19924;-72
2021/05/15 04:20:11;;;;;;;;;;;;;;;4.18;100.00;100059.00;5073602;28;19935;-70
2021/05/15 04:22:37;;;;;;;;;;;;;;;4.27;100.00;100046.75;5072528;28;19924;-72
2021/05/15 04:25:03;;;;;;;;;;;;;;;4.40;100.00;100048.66;5073224;28;19947;-72
2021/05/15 04:27:29;;;;;;;;;;;;;;;4.50;100.00;100050.63;5065440;28;19925;-71
2021/05/15 04:29:55;;;;;;;;;;;;;;;4.65;100.00;100053.22;5052793;28;19932;-72
2021/05/15 04:32:21;;;;;;;;;;;;;;;4.77;100.00;100056.94;5058459;28;19925;-72
2021/05/15 04:34:47;;;;;;;;;;;;;;;4.91;100.00;100064.94;5073000;28;19936;-71
2021/05/15 04:37:13;;;;;;;;;;;;;;;5.05;100.00;100052.34;5067528;28;19924;-71
2021/05/15 04:39:39;;;;;;;;;;;;;;;5.17;100.00;100052.38;5053154;28;19925;-72
2021/05/15 04:42:05;;;;;;;;;;;;;;;5.31;100.00;100051.41;5055957;28;19932;-72
2021/05/15 04:44:31;;;;;;;;;;;;;;;5.48;100.00;100055.63;5053425;28;20434;-71
2021/05/15 04:46:57;;;;;;;;;;;;;;;5.63;100.00;100053.66;5059405;28;19936;-72
2021/05/15 04:49:23;;;;;;;;;;;;;;;5.81;100.00;100056.88;5063764;28;19924;-72
2021/05/15 04:51:49;;;;;;;;;;;;;;;5.95;100.00;100050.47;5062531;28;19943;-71
2021/05/15 04:54:15;;;;;;;;;;;;;;;6.10;100.00;100061.16;5072541;28;19994;-70
2021/05/15 04:56:40;;;;;;;;;;;;;;;6.23;100.00;100061.09;5058981;28;19994;-71
2021/05/15 04:59:07;;;;;;;;;;;;;;;6.39;100.00;100059.00;5052896;28;19925;-72
2021/05/15 05:01:32;;;;;;;;;;;;;;;6.53;100.00;100064.25;5061847;28;19931;-70
2021/05/15 05:04:01;;;;;;;;;;;;;;;6.66;100.00;100066.00;5071059;28;19924;-70
2021/05/15 05:06:26;;;;;;;;;;;;;;;6.86;100.00;100072.59;5072322;28;19924;-70
2021/05/15 05:08:52;;;;;;;;;;;;;;;7.05;100.00;100074.72;5066164;28;19932;-71
2021/05/15 05:11:18;;;;;;;;;;;;;;;7.24;100.00;100067.91;5052032;28;19924;-70
2021/05/15 05:13:44;;;;;;;;;;;;;;;7.39;100.00;100064.03;5055751;28;20288;-70
2021/05/15 05:16:10;;;;;;;;;;;;;;;7.58;100.00;100066.13;5070828;28;19931;-71
2021/05/15 05:18:35;;;;;;;;;;;;;;;7.79;100.00;100066.25;5069066;28;19928;-71
2021/05/15 05:21:02;;;;;;;;;;;;;;;7.95;100.00;100063.19;5034905;28;19924;-70
2021/05/15 05:23:28;;;;;;;;;;;;;;;8.04;100.00;100066.97;5053297;28;19974;-71
2021/05/15 05:25:54;;;;;;;;;;;;;;;8.07;100.00;100060.47;5034023;28;19971;-70
2021/05/15 05:28:24;;;;;;;;;;;;;;;8.27;100.00;100056.13;5057275;28;19977;-70
2021/05/15 05:30:49;;;;;;;;;;;;;;;8.48;100.00;100057.06;5060696;28;19950;-71
2021/05/15 05:33:15;;;;;;;;;;;;;;;8.64;100.00;100056.66;5072123;28;19925;-71
2021/05/15 05:35:41;;;;;;;;;;;;;;;8.70;100.00;100044.47;5067237;28;19929;-71
2021/05/15 05:38:08;;;;;;;;;;;;;;;8.71;100.00;100047.06;5052887;28;19925;-71
2021/05/15 05:40:34;;;;;;;;;;;;;;;8.71;100.00;100033.53;5053185;28;19925;-71
2021/05/15 05:43:00;;;;;;;;;;;;;;;8.91;100.00;100038.22;5067381;28;20011;-71
2021/05/15 05:45:25;;;;;;;;;;;;;;;9.18;100.00;100045.84;5071903;28;20410;-73
2021/05/15 05:47:51;;;;;;;;;;;;;;;9.40;100.00;100034.00;5069176;28;20055;-72
2021/05/15 05:50:18;;;;;;;;;;;;;;;9.74;100.00;100035.59;5071838;28;19970;-74
2021/05/15 05:52:44;;;;;;;;;;;;;;;10.27;100.00;100027.19;5071926;28;19924;-74
2021/05/15 05:55:11;;;;;;;;;;;;;;;10.62;100.00;100031.28;5063219;28;19994;-73
2021/05/15 05:57:36;;;;;;;;;;;;;;;10.78;100.00;100025.25;5071713;28;19932;-73
2021/05/15 06:00:04;;;;;;;;;;;;;;;11.10;100.00;100024.09;5071863;28;19924;-73
2021/05/15 06:02:31;;;;;;;;;;;;;;;11.55;100.00;100025.28;5053605;28;20303;-74
2021/05/15 06:04:57;;;;;;;;;;;;;;;11.78;100.00;100030.34;5068192;28;19924;-73
2021/05/15 06:07:23;;;;;;;;;;;;;;;12.24;100.00;100020.41;5071436;28;19924;-73
2021/05/15 06:09:48;;;;;;;;;;;;;;;12.07;100.00;100015.81;5071616;28;20288;-74
2021/05/15 06:12:15;;;;;;;;;;;;;;;11.77;100.00;100028.63;5071495;28;19924;-73
2021/05/15 06:14:41;;;;;;;;;;;;;;;11.67;100.00;100031.41;5071460;28;19928;-74
2021/05/15 06:17:07;;;;;;;;;;;;;;;11.58;100.00;100029.56;5071575;28;19925;-74
2021/05/15 06:19:33;;;;;;;;;;;;;;;11.56;100.00;100030.56;5071222;28;19928;-74
2021/05/15 06:21:58;;;;;;;;;;;;;;;11.55;100.00;100030.72;5071580;28;19924;-73
2021/05/15 06:24:24;;;;;;;;;;;;;;;11.33;100.00;100019.19;5070897;28;19924;-73
2021/05/15 06:26:50;;;;;;;;;;;;;;;11.04;100.00;100024.69;5070786;28;19978;-73
2021/05/15 06:29:17;;;;;;;;;;;;;;;10.85;100.00;100028.25;5071347;28;19936;-73
2021/05/15 06:31:43;;;;;;;;;;;;;;;10.75;100.00;100035.56;5071386;28;19929;-73
2021/05/15 06:34:08;;;;;;;;;;;;;;;10.44;100.00;100036.53;5071208;28;20310;-73
2021/05/15 06:36:34;;;;;;;;;;;;;;;10.20;100.00;100036.88;5071094;28;19925;-73
2021/05/15 06:39:00;;;;;;;;;;;;;;;10.53;100.00;100049.25;5071281;28;19924;-73
2021/05/15 06:41:26;;;;;;;;;;;;;;;11.13;100.00;100041.97;5073357;28;19931;-73
2021/05/15 06:43:52;;;;;;;;;;;;;;;12.05;100.00;100037.69;5075350;28;20445;-73
2021/05/15 06:46:18;;;;;;;;;;;;;;;12.50;100.00;100031.41;5075250;28;19935;-73
2021/05/15 06:48:44;;;;;;;;;;;;;;;13.00;100.00;100035.47;5075157;28;19924;-73
2021/05/15 06:51:10;;;;;;;;;;;;;;;13.76;100.00;100030.34;5075460;28;19990;-73
2021/05/15 06:53:36;;;;;;;;;;;;;;;13.75;100.00;100025.06;5074790;28;19925;-73
2021/05/15 06:56:02;;;;;;;;;;;;;;;13.14;100.00;100031.31;5075128;28;19924;-73
2021/05/15 06:58:28;;;;;;;;;;;;;;;12.98;100.00;100039.34;5074913;28;19935;-73
2021/05/15 07:00:53;;;;;;;;;;;;;;;12.65;100.00;100030.88;5057859;28;19929;-73
2021/05/15 07:03:20;;;;;;;;;;;;;;;11.93;100.00;100037.00;5055802;28;20333;-73
2021/05/15 07:05:46;;;;;;;;;;;;;;;11.85;100.00;100031.44;5061866;28;19925;-73
2021/05/15 07:08:13;;;;;;;;;;;;;;;12.46;100.00;100024.56;5054711;28;20332;-73
2021/05/15 07:10:38;;;;;;;;;;;;;;;13.41;100.00;100025.91;5071210;28;19924;-73
2021/05/15 07:13:04;;;;;;;;;;;;;;;13.97;100.00;100016.31;5072946;28;20283;-73
2021/05/15 07:15:30;;;;;;;;;;;;;;;14.25;100.00;100023.44;5060559;28;19925;-69
2021/05/15 07:17:56;;;;;;;;;;;;;;;14.18;100.00;100017.78;5054309;28;19925;-73
2021/05/15 07:20:23;;;;;;;;;;;;;;;14.05;100.00;100020.97;5039370;28;19925;-74
2021/05/15 07:22:48;;;;;;;;;;;;;;;14.12;100.00;100005.63;5055924;28;19929;-74
2021/05/15 07:25:16;;;;;;;;;;;;;;;14.66;100.00;100001.72;5054298;28;20380;-74
2021/05/15 07:27:41;;;;;;;;;;;;;;;15.17;100.00;100005.13;5061286;28;19928;-74
2021/05/15 07:30:08;;;;;;;;;;;;;;;14.82;100.00;99993.50;5052431;28;20450;-73
2021/05/15 07:32:34;;;;;;;;;;;;;;;15.04;100.00;100002.88;5053869;28;19928;-74
2021/05/15 07:35:00;;;;;;;;;;;;;;;15.74;100.00;99998.66;5053248;28;19932;-73
2021/05/15 07:37:26;;;;;;;;;;;;;;;16.61;100.00;99991.41;5054063;28;19924;-74
2021/05/15 07:39:52;;;;;;;;;;;;;;;17.20;100.00;99999.00;5053967;28;19928;-74
2021/05/15 07:42:18;;;;;;;;;;;;;;;17.95;100.00;99981.78;5054185;28;20407;-74
2021/05/15 07:44:44;;;;;;;;;;;;;;;18.61;100.00;99994.59;5053569;28;19932;-74
2021/05/15 07:47:10;;;;;;;;;;;;;;;18.84;100.00;99984.25;5047377;28;19925;-75
2021/05/15 07:49:36;;;;;;;;;;;;;;;18.93;100.00;99986.91;5053628;28;19947;-74
2021/05/15 07:52:01;;;;;;;;;;;;;;;18.36;100.00;99986.72;5053003;28;20408;-74
2021/05/15 07:54:28;;;;;;;;;;;;;;;17.76;100.00;99986.78;5034833;28;20020;-74
2021/05/15 07:56:54;;;;;;;;;;;;;;;17.97;100.00;99983.31;5035817;28;19933;-74
2021/05/15 07:59:21;;;;;;;;;;;;;;;18.33;100.00;99978.84;5053323;28;20019;-73
2021/05/15 08:01:46;;;;;;;;;;;;;;;18.65;100.00;99976.66;5053263;28;19931;-74
2021/05/15 08:04:12;;;;;;;;;;;;;;;18.42;100.00;99974.94;5053540;28;20388;-73
2021/05/15 08:06:38;;;;;;;;;;;;;;;19.37;100.00;99970.16;5053093;28;19925;-74
2021/05/15 08:09:04;;;;;;;;;;;;;;;19.34;100.00;99969.69;5043794;28;19985;-73
2021/05/15 08:11:32;;;;;;;;;;;;;;;19.44;100.00;99974.81;5053782;28;19931;-73
2021/05/15 08:13:58;;;;;;;;;;;;;;;19.67;100.00;99977.28;5053366;28;19932;-73
2021/05/15 08:16:24;;;;;;;;;;;;;;;19.83;100.00;99976.13;5053526;28;19964;-73
2021/05/15 08:18:49;;;;;;;;;;;;;;;20.12;100.00;99975.00;5018894;28;19964;-73
2021/05/15 08:21:15;;;;;;;;;;;;;;;19.20;100.00;99976.97;5054987;28;20350;-74
2021/05/15 08:23:41;;;;;;;;;;;;;;;19.45;100.00;99971.03;5059950;28;20031;-73
2021/05/15 08:26:08;;;;;;;;;;;;;;;18.48;100.00;99974.19;5071975;28;20293;-74
2021/05/15 08:28:34;;;;;;;;;;;;;;;19.51;100.00;99976.56;5059424;28;19939;-74
2021/05/15 08:31:01;;;;;;;;;;;;;;;20.15;100.00;99973.75;5035336;28;20345;-74
2021/05/15 08:33:27;;;;;;;;;;;;;;;20.13;100.00;99971.19;5062969;28;19986;-74
2021/05/15 08:35:53;;;;;;;;;;;;;;;20.52;100.00;99966.91;5073371;28;19928;-73
2021/05/15 08:38:18;;;;;;;;;;;;;;;21.08;96.20;99975.88;5064983;28;19925;-75
2021/05/15 08:40:44;;;;;;;;;;;;;;;21.02;90.25;99969.31;5053045;28;19928;-74
2021/05/15 08:43:12;;;;;;;;;;;;;;;20.50;98.79;99971.75;5037120;28;20350;-68
2021/05/15 08:45:39;;;;;;;;;;;;;;;20.77;96.50;99960.81;5060308;28;19924;-68
2021/05/15 08:48:06;;;;;;;;;;;;;;;19.28;100.00;99963.09;5070827;28;19924;-67
2021/05/15 08:50:33;;;;;;;;;;;;;;;19.81;100.00;99957.06;5034496;28;19928;-67
2021/05/15 08:53:00;;;;;;;;;;;;;;;20.35;100.00;99951.78;5052849;28;19956;-68
2021/05/15 08:55:28;;;;;;;;;;;;;;;19.96;99.78;99953.34;5070671;28;19924;-67
2021/05/15 08:57:54;;;;;;;;;;;;;;;19.65;99.35;99957.38;5069621;28;19978;-67
2021/05/15 09:00:21;;;;;;;;;;;;;;;20.52;96.16;99961.38;5053313;28;19924;-68
2021/05/15 09:02:50;;;;;;;;;;;;;;;21.30;95.26;99953.56;5052409;28;19951;-67
2021/05/15 09:05:17;;;;;;;;;;;;;;;21.22;87.25;99960.19;5052334;28;19925;-67
2021/05/15 09:07:45;;;;;;;;;;;;;;;20.98;88.12;99953.38;5052035;28;19936;-67
2021/05/15 09:10:11;;;;;;;;;;;;;;;20.74;87.31;99964.00;5052557;28;19936;-67
2021/05/15 09:12:37;;;;;;;;;;;;;;;20.90;87.43;99955.28;5052347;28;19931;-67
2021/05/15 09:15:04;;;;;;;;;;;;;;;20.92;91.45;99957.00;5052307;28;19925;-67
2021/05/15 09:17:40;;;;;;;;;;;;;;;20.76;90.53;99952.75;5052114;28;19925;-67
2021/05/15 09:20:08;;;;;;;;;;;;;;;20.12;89.23;99952.13;5052057;28;19925;-67
2021/05/15 09:22:34;;;;;;;;;;;;;;;19.45;95.52;99949.00;5052015;28;19925;-67
2021/05/15 09:25:03;;;;;;;;;;;;;;;19.84;94.38;99945.69;5052155;28;19932;-67
2021/05/15 09:27:32;;;;;;;;;;;;;;;19.94;90.81;99952.72;5052286;28;19925;-67
2021/05/15 09:29:57;;;;;;;;;;;;;;;20.98;91.23;99953.38;5052015;28;19925;-68
2021/05/15 09:32:28;;;;;;;;;;;;;;;21.84;87.40;99955.19;5052264;28;20388;-67
2021/05/15 09:34:54;;;;;;;;;;;;;;;22.12;81.34;99940.22;5033904;28;19929;-67
2021/05/15 09:37:31;;;;;;;;;;;;;;;21.86;79.85;99952.22;5051590;28;20438;-67
2021/05/15 09:39:57;;;;;;;;;;;;;;;22.62;75.90;99944.22;5051915;28;19932;-67
2021/05/15 09:42:22;;;;;;;;;;;;;;;21.36;80.45;99938.94;5051849;28;19925;-67
2021/05/15 09:44:48;;;;;;;;;;;;;;;20.87;81.16;99939.19;5051629;28;20308;-67
2021/05/15 09:47:18;;;;;;;;;;;;;;;21.99;82.84;99929.22;5051624;28;19925;-67
2021/05/15 09:49:44;;;;;;;;;;;;;;;22.87;72.84;99933.19;5051574;28;19939;-67
2021/05/15 09:52:09;;;;;;;;;;;;;;;22.37;71.94;99931.19;5051755;28;20038;-68
2021/05/15 09:54:38;;;;;;;;;;;;;;;21.32;75.09;99930.22;5051208;28;19931;-67
2021/05/15 09:57:04;;;;;;;;;;;;;;;20.56;77.39;99935.09;5054286;28;19978;-68
2021/05/15 09:59:31;;;;;;;;;;;;;;;19.75;85.25;99930.34;5051305;28;20183;-67
2021/05/15 10:01:58;;;;;;;;;;;;;;;20.04;91.67;99931.13;5051414;28;19948;-67
2021/05/15 10:04:24;;;;;;;;;;;;;;;20.14;91.63;99923.31;5051451;28;19929;-68
2021/05/15 10:06:50;;;;;;;;;;;;;;;19.98;86.70;99918.19;5051509;28;19925;-67
2021/05/15 10:09:24;;;;;;;;;;;;;;;19.77;84.73;99921.88;5051833;28;20381;-68
2021/05/15 10:11:51;;;;;;;;;;;;;;;20.04;85.04;99912.72;5051111;28;19931;-67
2021/05/15 10:14:17;;;;;;;;;;;;;;;19.71;85.33;99907.03;5051430;28;19952;-67
2021/05/15 10:16:43;;;;;;;;;;;;;;;19.91;83.02;99907.16;5050086;28;19948;-67
2021/05/15 10:19:09;;;;;;;;;;;;;;;20.54;83.47;99911.56;5033503;28;20437;-68
2021/05/15 10:21:35;;;;;;;;;;;;;;;20.99;82.39;99908.19;5050954;28;19924;-68
2021/05/15 10:24:01;;;;;;;;;;;;;;;20.84;79.35;99903.72;5051392;28;20342;-67
2021/05/15 10:26:27;;;;;;;;;;;;;;;20.68;77.25;99904.13;5051189;28;19932;-67
2021/05/15 10:29:01;;;;;;;;;;;;;;;20.46;78.16;99903.50;5050837;28;19924;-68
2021/05/15 10:31:36;;;;;;;;;;;;;;;21.17;78.85;99891.84;5051041;28;19925;-68
2021/05/15 10:34:02;;;;;;;;;;;;;;;20.86;79.19;99893.34;5051060;28;19925;-69
2021/05/15 10:36:28;;;;;;;;;;;;;;;21.16;72.70;99884.59;5051252;28;19929;-67
2021/05/15 10:38:54;;;;;;;;;;;;;;;21.34;72.22;99903.28;5050807;28;19924;-68
2021/05/15 10:41:21;;;;;;;;;;;;;;;20.56;73.92;99891.00;5051199;28;20303;-68
2021/05/15 10:43:48;;;;;;;;;;;;;;;19.95;86.17;99883.66;5050975;28;19929;-68
2021/05/15 10:46:20;;;;;;;;;;;;;;;19.63;83.50;99876.91;5033239;28;20012;-69
2021/05/15 10:48:55;;;;;;;;;;;;;;;19.83;81.69;99877.88;5050744;28;20443;-69
2021/05/15 10:51:30;;;;;;;;;;;;;;;19.24;77.59;99869.09;5016857;28;19925;-69
2021/05/15 10:53:56;;;;;;;;;;;;;;;19.36;74.90;99865.75;5033254;28;19932;-67
2021/05/15 10:56:28;;;;;;;;;;;;;;;19.55;78.68;99866.94;5051115;28;19928;-69
2021/05/15 10:59:00;;;;;;;;;;;;;;;20.34;77.43;99868.25;5033109;28;20285;-69
2021/05/15 11:01:27;;;;;;;;;;;;;;;20.52;67.74;99861.28;5051319;28;19924;-69
2021/05/15 11:03:53;;;;;;;;;;;;;;;21.00;66.50;99860.25;5050803;28;19929;-69
2021/05/15 11:06:20;;;;;;;;;;;;;;;21.81;69.48;99852.59;5050895;28;19925;-67
2021/05/15 11:08:58;;;;;;;;;;;;;;;21.93;64.37;99849.97;5032831;28;19924;-70
2021/05/15 11:11:37;;;;;;;;;;;;;;;21.19;62.10;99841.94;5051028;28;19932;-66
2021/05/15 11:14:03;;;;;;;;;;;;;;;20.97;62.96;99842.19;5050846;28;19924;-67
2021/05/15 11:16:33;;;;;;;;;;;;;;;20.87;65.62;99839.03;5050891;28;19924;-67
2021/05/15 11:19:06;;;;;;;;;;;;;;;20.68;62.96;99852.59;5050716;28;19924;-67
2021/05/15 11:21:36;;;;;;;;;;;;;;;21.19;61.34;99828.16;5050688;28;20334;-70
2021/05/15 11:24:02;;;;;;;;;;;;;;;21.86;59.48;99826.00;5050810;28;19954;-67
2021/05/15 11:26:47;;;;;;;;;;;;;;;21.04;58.60;99828.41;5050983;28;19932;-67
2021/05/15 11:29:13;;;;;;;;;;;;;;;21.10;57.64;99833.06;5036623;28;19931;-68
2021/05/15 11:31:40;;;;;;;;;;;;;;;20.75;61.06;99833.31;5054030;28;20349;-67
2021/05/15 11:34:10;;;;;;;;;;;;;;;20.89;63.24;99829.47;5054117;28;19931;-68
2021/05/15 11:36:39;;;;;;;;;;;;;;;20.92;64.87;99824.59;5054233;28;19925;-67
2021/05/15 11:39:05;;;;;;;;;;;;;;;20.81;64.86;99826.94;5054177;28;19925;-68
2021/05/15 11:41:31;;;;;;;;;;;;;;;20.21;60.58;99819.50;5054208;28;19925;-67
2021/05/15 11:43:57;;;;;;;;;;;;;;;20.99;60.15;99814.41;5053785;28;19932;-68
2021/05/15 11:46:25;;;;;;;;;;;;;;;20.95;60.20;99818.66;5054245;28;20350;-67
2021/05/15 11:48:51;;;;;;;;;;;;;;;20.27;59.46;99828.84;5053759;28;19928;-68
2021/05/15 11:51:18;;;;;;;;;;;;;;;19.55;64.92;99821.00;5053910;28;19925;-68
2021/05/15 11:53:45;;;;;;;;;;;;;;;19.03;71.35;99826.00;5053976;28;19970;-68
2021/05/15 11:56:11;;;;;;;;;;;;;;;18.83;75.41;99828.59;5053907;28;20277;-67
2021/05/15 11:58:42;;;;;;;;;;;;;;;18.87;77.24;99835.41;5053654;28;19979;-68
2021/05/15 12:01:10;;;;;;;;;;;;;;;19.37;77.40;99838.06;5053429;28;19925;-68
2021/05/15 12:03:36;;;;;;;;;;;;;;;19.69;78.13;99832.06;5053577;28;19925;-68
2021/05/15 12:06:10;;;;;;;;;;;;;;;19.51;83.56;99832.63;5053745;28;20407;-68
2021/05/15 12:08:36;;;;;;;;;;;;;;;19.27;91.01;99829.34;5055969;28;19932;-68
2021/05/15 12:11:02;;;;;;;;;;;;;;;18.93;93.32;99833.75;5053702;28;19928;-68
2021/05/15 12:13:28;;;;;;;;;;;;;;;18.48;96.10;99836.78;5035784;28;20300;-68
2021/05/15 12:15:54;;;;;;;;;;;;;;;17.93;96.06;99836.44;5053610;28;19925;-68
2021/05/15 12:18:20;;;;;;;;;;;;;;;17.71;98.81;99846.53;5053085;28;19925;-68
2021/05/15 12:20:47;;;;;;;;;;;;;;;17.53;100.00;99849.66;5053214;28;19925;-68
2021/05/15 12:23:14;;;;;;;;;;;;;;;17.38;100.00;99845.06;5053639;28;19924;-67
2021/05/15 12:25:41;;;;;;;;;;;;;;;17.59;100.00;99839.84;5053458;28;19925;-67
2021/05/15 12:28:17;;;;;;;;;;;;;;;18.54;100.00;99835.13;5035222;28;19932;-68
2021/05/15 12:30:43;;;;;;;;;;;;;;;20.04;100.00;99837.47;5053166;28;20370;-68
2021/05/15 12:33:08;;;;;;;;;;;;;;;21.12;90.58;99833.69;5053074;28;19925;-68
2021/05/15 12:35:34;;;;;;;;;;;;;;;21.59;79.58;99821.69;5053288;28;19924;-68